createdAt,value
2022-09-12T00:01:07.079Z,9.25
2022-09-12T00:06:11.857Z,9.10
2022-09-12T00:11:14.075Z,9.68
2022-09-12T00:16:17.818Z,10.60
2022-09-12T00:21:20.881Z,10.77
2022-09-12T00:26:22.701Z,11.00
2022-09-12T00:31:26.650Z,11.18
2022-09-12T00:36:29.702Z,10.02
2022-09-12T00:41:34.446Z,11.25
2022-09-12T00:46:43.036Z,9.90
2022-09-12T00:52:08.407Z,9.65
2022-09-12T00:57:11.566Z,10.55
2022-09-12T01:02:13.373Z,9.82
2022-09-12T01:07:15.542Z,10.48
2022-09-12T01:12:18.733Z,10.90
2022-09-12T01:17:20.393Z,10.38
2022-09-12T01:23:02.691Z,10.23
2022-09-12T01:28:38.327Z,9.68
2022-09-12T01:34:14.948Z,10.15
2022-09-12T01:39:25.388Z,9.63
2022-09-12T01:44:37.616Z,9.95
2022-09-12T01:49:56.191Z,10.40
2022-09-12T01:55:09.583Z,10.35
2022-09-12T02:00:12.794Z,10.23
2022-09-12T02:05:34.553Z,10.23
2022-09-12T02:10:44.961Z,10.80
2022-09-12T02:15:52.626Z,11.18
2022-09-12T02:20:55.857Z,11.00
2022-09-12T02:26:04.485Z,11.07
2022-09-12T02:31:38.923Z,12.50
2022-09-12T02:36:46.271Z,11.73
2022-09-12T02:41:51.727Z,12.13
2022-09-12T02:46:58.567Z,12.57
2022-09-12T02:52:02.074Z,12.15
2022-09-12T02:57:06.093Z,13.75
2022-09-12T03:02:41.994Z,13.40
2022-09-12T03:07:49.747Z,13.68
2022-09-12T03:13:00.930Z,13.48
2022-09-12T03:18:12.811Z,13.57
2022-09-12T03:23:29.234Z,12.75
2022-09-12T03:28:32.844Z,14.20
2022-09-12T03:33:34.466Z,13.23
2022-09-12T03:38:36.105Z,13.30
2022-09-12T03:43:37.757Z,13.80
2022-09-12T03:48:40.510Z,13.73
2022-09-12T03:53:42.206Z,14.32
2022-09-12T03:58:43.891Z,14.02
2022-09-12T04:03:48.636Z,13.82
2022-09-12T04:08:54.576Z,14.95
2022-09-12T04:13:56.212Z,14.30
2022-09-12T04:18:57.958Z,14.80
2022-09-12T04:23:59.570Z,15.55
2022-09-12T04:29:01.382Z,14.48
2022-09-12T04:34:03.386Z,14.60
2022-09-12T04:39:06.054Z,14.27
2022-09-12T04:44:12.206Z,14.30
2022-09-12T04:49:16.555Z,13.57
2022-09-12T04:54:19.476Z,13.35
2022-09-12T04:59:22.054Z,14.70
2022-09-12T05:04:24.205Z,13.68
2022-09-12T05:09:25.940Z,14.38
2022-09-12T05:14:28.392Z,14.40
2022-09-12T05:19:30.852Z,14.60
2022-09-12T05:24:32.748Z,15.30
2022-09-12T05:29:34.696Z,14.80
2022-09-12T05:34:37.737Z,15.38
2022-09-12T05:39:39.391Z,14.40
2022-09-12T05:44:41.080Z,14.70
2022-09-12T05:49:44.711Z,14.80
2022-09-12T05:54:48.203Z,14.52
2022-09-12T05:59:50.750Z,15.05
2022-09-12T06:04:52.385Z,16.73
2022-09-12T06:09:54.110Z,13.45
2022-09-12T06:14:56.038Z,14.50
2022-09-12T06:19:57.673Z,15.07
2022-09-12T06:24:59.285Z,14.18
2022-09-12T06:30:00.924Z,13.55
2022-09-12T06:35:03.650Z,14.10
2022-09-12T06:40:05.784Z,14.35
2022-09-12T06:45:08.172Z,14.27
2022-09-12T06:50:10.008Z,13.68
2022-09-12T06:55:12.777Z,14.45
2022-09-12T07:00:16.100Z,13.82
2022-09-12T07:05:17.740Z,13.80
2022-09-12T07:10:22.347Z,13.57
2022-09-12T07:15:24.152Z,13.68
2022-09-12T07:20:25.840Z,13.45
2022-09-12T07:25:27.561Z,13.15
2022-09-12T07:30:29.190Z,11.70
2022-09-12T07:35:33.864Z,12.73
2022-09-12T07:40:35.488Z,12.43
2022-09-12T07:45:37.199Z,11.07
2022-09-12T07:50:42.020Z,11.90
2022-09-12T07:55:54.436Z,11.88
2022-09-12T08:01:05.895Z,11.15
2022-09-12T08:06:11.134Z,11.13
2022-09-12T08:11:16.488Z,11.05
2022-09-12T08:16:23.336Z,11.80
2022-09-12T08:21:27.517Z,10.80
2022-09-12T08:26:30.381Z,10.57
2022-09-12T08:31:36.523Z,9.32
2022-09-12T08:36:38.310Z,8.23
2022-09-12T08:41:43.569Z,7.57
2022-09-12T08:47:03.947Z,7.25
2022-09-12T08:52:12.873Z,7.03
2022-09-12T08:57:15.581Z,9.68
2022-09-12T09:02:38.958Z,6.20
2022-09-12T09:08:00.274Z,5.55
2022-09-12T09:13:50.805Z,5.72
2022-09-12T09:18:53.998Z,5.30
2022-09-12T09:24:05.379Z,6.85
2022-09-12T09:29:19.786Z,5.95
2022-09-12T09:34:30.046Z,6.07
2022-09-12T09:39:45.308Z,5.80
2022-09-12T09:44:49.129Z,5.55
2022-09-12T09:49:50.864Z,6.68
2022-09-12T09:54:59.531Z,5.07
2022-09-12T10:00:27.734Z,3.45
2022-09-12T10:05:31.394Z,4.78
2022-09-12T10:10:33.110Z,4.93
2022-09-12T10:15:34.966Z,5.45
2022-09-12T10:20:45.351Z,4.47
2022-09-12T10:25:53.848Z,4.55
2022-09-12T10:30:56.274Z,3.78
2022-09-12T10:36:04.060Z,3.78
2022-09-12T10:41:11.391Z,3.53
2022-09-12T10:46:16.329Z,3.30
2022-09-12T10:51:23.900Z,3.50
2022-09-12T10:56:33.469Z,3.20
2022-09-12T11:01:38.546Z,3.97
2022-09-12T11:06:57.963Z,2.90
2022-09-12T11:12:18.101Z,3.50
2022-09-12T11:17:43.243Z,3.10
2022-09-12T11:23:04.260Z,3.25
2022-09-12T11:28:25.013Z,2.50
2022-09-12T11:33:42.841Z,3.00
2022-09-12T11:38:54.418Z,2.83
2022-09-12T11:44:39.909Z,2.47
2022-09-12T11:49:48.574Z,2.70
2022-09-12T11:55:05.095Z,2.83
2022-09-12T12:00:26.691Z,3.47
2022-09-12T12:05:30.723Z,2.83
2022-09-12T12:10:39.352Z,2.80
2022-09-12T12:15:48.391Z,3.38
2022-09-12T12:20:51.828Z,3.15
2022-09-12T12:25:58.856Z,3.28
2022-09-12T12:31:01.946Z,2.90
2022-09-12T12:36:07.723Z,3.65
2022-09-12T12:41:18.638Z,3.10
2022-09-12T12:46:22.890Z,3.10
2022-09-12T12:51:39.715Z,2.90
2022-09-12T12:56:42.580Z,3.00
2022-09-12T13:01:54.939Z,2.95
2022-09-12T13:07:08.330Z,3.15
2022-09-12T13:12:19.304Z,3.28
2022-09-12T13:17:37.965Z,2.92
2022-09-12T13:22:41.969Z,3.22
2022-09-12T13:27:59.142Z,2.92
2022-09-12T13:33:10.040Z,2.90
2022-09-12T13:38:38.871Z,2.50
2022-09-12T13:43:43.576Z,2.90
2022-09-12T13:48:45.761Z,3.53
2022-09-12T13:53:48.065Z,2.78
2022-09-12T13:58:57.927Z,2.80
2022-09-12T14:04:18.566Z,2.63
2022-09-12T14:09:32.733Z,2.70
2022-09-12T14:14:37.372Z,2.72
2022-09-12T14:19:39.878Z,2.83
2022-09-12T14:24:41.946Z,2.90
2022-09-12T14:29:44.254Z,3.00
2022-09-12T14:35:05.301Z,3.72
2022-09-12T14:40:40.676Z,2.92
2022-09-12T14:45:42.432Z,2.88
2022-09-12T14:50:48.337Z,2.97
2022-09-12T14:56:06.841Z,2.90
2022-09-12T15:01:08.576Z,3.28
2022-09-12T15:06:30.260Z,3.25
2022-09-12T15:11:33.518Z,3.05
2022-09-12T15:16:35.190Z,2.85
2022-09-12T15:21:36.828Z,3.15
2022-09-12T15:26:38.557Z,3.13
2022-09-12T15:31:40.419Z,3.05
2022-09-12T15:36:42.044Z,3.13
2022-09-12T15:41:43.785Z,3.17
2022-09-12T15:46:45.589Z,2.88
2022-09-12T15:51:47.326Z,3.17
2022-09-12T15:56:49.645Z,4.30
2022-09-12T16:01:51.623Z,4.07
2022-09-12T16:06:54.937Z,3.38
2022-09-12T16:11:56.594Z,3.40
2022-09-12T16:16:58.335Z,3.22
2022-09-12T16:21:59.977Z,3.10
2022-09-12T16:27:01.760Z,3.13
2022-09-12T16:32:03.629Z,2.97
2022-09-12T16:37:05.694Z,3.15
2022-09-12T16:42:07.358Z,2.88
2022-09-12T16:47:09.055Z,3.10
2022-09-12T16:52:10.895Z,3.00
2022-09-12T16:57:12.694Z,2.70
2022-09-12T17:02:14.979Z,3.30
2022-09-12T17:07:16.631Z,3.22
2022-09-12T17:12:18.223Z,3.30
2022-09-12T17:17:19.987Z,2.92
2022-09-12T17:22:21.614Z,3.70
2022-09-12T17:27:23.237Z,3.60
2022-09-12T17:32:25.472Z,3.08
2022-09-12T17:37:28.015Z,3.30
2022-09-12T17:42:29.792Z,3.35
2022-09-12T17:47:31.425Z,3.60
2022-09-12T17:52:33.289Z,3.53
2022-09-12T17:57:34.918Z,3.47
2022-09-12T18:02:36.638Z,3.40
2022-09-12T18:07:43.479Z,3.53
2022-09-12T18:12:47.008Z,3.42
2022-09-12T18:17:48.628Z,4.32
2022-09-12T18:22:50.245Z,5.03
2022-09-12T18:27:52.251Z,3.55
2022-09-12T18:32:53.906Z,3.95
2022-09-12T18:37:56.664Z,3.67
2022-09-12T18:42:58.337Z,3.85
2022-09-12T18:48:00.119Z,3.78
2022-09-12T18:53:01.823Z,4.13
2022-09-12T18:58:03.489Z,3.88
2022-09-12T19:03:05.106Z,4.10
2022-09-12T19:08:06.753Z,4.15
2022-09-12T19:13:08.399Z,4.55
2022-09-12T19:18:10.036Z,4.43
2022-09-12T19:23:11.697Z,4.32
2022-09-12T19:28:13.313Z,4.68
2022-09-12T19:33:14.990Z,4.63
2022-09-12T19:38:17.613Z,4.50
2022-09-12T19:43:19.258Z,4.22
2022-09-12T19:48:21.620Z,4.50
2022-09-12T19:53:23.334Z,4.93
2022-09-12T19:58:25.141Z,4.45
2022-09-12T20:03:27.569Z,4.95
2022-09-12T20:08:29.337Z,4.47
2022-09-12T20:13:31.086Z,4.68
2022-09-12T20:18:32.878Z,4.80
2022-09-12T20:23:34.715Z,4.57
2022-09-12T20:28:37.596Z,4.82
2022-09-12T20:33:40.052Z,5.07
2022-09-12T20:38:46.278Z,4.60
2022-09-12T20:43:52.368Z,4.78
2022-09-12T20:48:54.676Z,4.97
2022-09-12T20:54:01.254Z,4.45
2022-09-12T20:59:04.242Z,4.68
2022-09-12T21:04:06.138Z,4.70
2022-09-12T21:09:07.908Z,4.88
2022-09-12T21:14:09.653Z,5.20
2022-09-12T21:19:11.416Z,4.78
2022-09-12T21:24:14.992Z,4.75
2022-09-12T21:29:16.717Z,5.05
2022-09-12T21:34:18.380Z,4.93
2022-09-12T21:39:20.140Z,4.97
2022-09-12T21:44:22.580Z,4.93
2022-09-12T21:49:24.351Z,5.00
2022-09-12T21:54:26.143Z,4.78
2022-09-12T21:59:27.837Z,5.10
2022-09-12T22:04:31.510Z,5.15
2022-09-12T22:09:34.290Z,5.60
2022-09-12T22:14:36.627Z,5.13
2022-09-12T22:19:38.708Z,5.30
2022-09-12T22:24:40.323Z,4.78
2022-09-12T22:29:42.579Z,5.22
2022-09-12T22:34:44.412Z,5.60
2022-09-12T22:39:46.417Z,4.97
2022-09-12T22:44:48.049Z,5.30
2022-09-12T22:49:49.726Z,4.90
2022-09-12T22:54:51.488Z,5.10
2022-09-12T22:59:53.137Z,5.32
2022-09-12T23:04:54.757Z,5.60
2022-09-12T23:09:56.426Z,5.38
2022-09-12T23:14:58.043Z,5.40
2022-09-12T23:19:59.828Z,5.45
2022-09-12T23:25:01.454Z,6.15
2022-09-12T23:30:03.343Z,6.45
2022-09-12T23:35:05.402Z,5.95
2022-09-12T23:40:08.861Z,6.47
2022-09-12T23:45:10.662Z,6.07
2022-09-12T23:50:12.283Z,6.22
2022-09-12T23:55:14.012Z,6.40
